sensor_id;sensor_type;location;lat;lon;timestamp;P1;durP1;ratioP1;P2;durP2;ratioP2
64018;SDS011;66942;52.138;5.216;2023-06-24T00:01:00;8.5;;;8.0;;
64018;SDS011;66942;52.138;5.216;2023-06-24T00:02:36;8.5;;;8.0;;
64018;SDS011;66942;52.138;5.216;2023-06-24T00:04:12;8.31;;;7.9;;
64018;SDS011;66942;52.138;5.216;2023-06-24T00:07:25;8.2;;;7.8;;
64018;SDS011;66942;52.138;5.216;2023-06-24T00:09:01;8.9;;;8.5;;
64018;SDS011;66942;52.138;5.216;2023-06-24T00:10:37;8.4;;;8.0;;
64018;SDS011;66942;52.138;5.216;2023-06-24T00:13:49;8.71;;;8.31;;
64018;SDS011;66942;52.138;5.216;2023-06-24T00:15:25;8.71;;;8.31;;
64018;SDS011;66942;52.138;5.216;2023-06-24T00:17:02;8.71;;;8.31;;
64018;SDS011;66942;52.138;5.216;2023-06-24T00:20:14;8.6;;;8.2;;
64018;SDS011;66942;52.138;5.216;2023-06-24T00:21:50;8.71;;;8.31;;
64018;SDS011;66942;52.138;5.216;2023-06-24T00:23:27;9.1;;;8.6;;
64018;SDS011;66942;52.138;5.216;2023-06-24T00:25:05;8.81;;;8.31;;
64018;SDS011;66942;52.138;5.216;2023-06-24T00:28:18;9.1;;;8.6;;
64018;SDS011;66942;52.138;5.216;2023-06-24T00:29:54;8.4;;;7.9;;
64018;SDS011;66942;52.138;5.216;2023-06-24T00:31:31;8.0;;;7.6;;
64018;SDS011;66942;52.138;5.216;2023-06-24T00:34:43;8.31;;;7.9;;
64018;SDS011;66942;52.138;5.216;2023-06-24T00:36:19;8.5;;;7.9;;
64018;SDS011;66942;52.138;5.216;2023-06-24T00:37:56;8.5;;;8.1;;
64018;SDS011;66942;52.138;5.216;2023-06-24T00:41:09;8.0;;;7.6;;
64018;SDS011;66942;52.138;5.216;2023-06-24T00:42:46;8.81;;;8.31;;
64018;SDS011;66942;52.138;5.216;2023-06-24T00:44:22;9.0;;;8.4;;
64018;SDS011;66942;52.138;5.216;2023-06-24T00:45:59;9.0;;;8.5;;
64018;SDS011;66942;52.138;5.216;2023-06-24T00:49:12;9.0;;;8.5;;
64018;SDS011;66942;52.138;5.216;2023-06-24T00:50:48;9.0;;;8.5;;
64018;SDS011;66942;52.138;5.216;2023-06-24T00:52:24;9.1;;;8.5;;
64018;SDS011;66942;52.138;5.216;2023-06-24T00:55:37;9.1;;;8.6;;
64018;SDS011;66942;52.138;5.216;2023-06-24T00:57:14;8.81;;;8.2;;
64018;SDS011;66942;52.138;5.216;2023-06-24T00:58:52;9.21;;;8.6;;
64018;SDS011;66942;52.138;5.216;2023-06-24T01:02:04;9.1;;;8.6;;
64018;SDS011;66942;52.138;5.216;2023-06-24T01:03:40;8.6;;;8.1;;
64018;SDS011;66942;52.138;5.216;2023-06-24T01:05:17;9.1;;;8.6;;
64018;SDS011;66942;52.138;5.216;2023-06-24T01:06:53;8.2;;;7.8;;
64018;SDS011;66942;52.138;5.216;2023-06-24T01:10:08;8.6;;;8.2;;
64018;SDS011;66942;52.138;5.216;2023-06-24T01:11:45;8.81;;;8.31;;
64018;SDS011;66942;52.138;5.216;2023-06-24T01:13:21;9.1;;;8.6;;
64018;SDS011;66942;52.138;5.216;2023-06-24T01:16:37;9.21;;;8.71;;
64018;SDS011;66942;52.138;5.216;2023-06-24T01:18:32;8.4;;;8.0;;
64018;SDS011;66942;52.138;5.216;2023-06-24T01:20:17;9.5;;;9.0;;
64018;SDS011;66942;52.138;5.216;2023-06-24T01:22:04;9.1;;;8.6;;
64018;SDS011;66942;52.138;5.216;2023-06-24T01:24:12;8.71;;;8.2;;
64018;SDS011;66942;52.138;5.216;2023-06-24T01:26:48;8.5;;;8.0;;
64018;SDS011;66942;52.138;5.216;2023-06-24T01:30:00;7.8;;;7.4;;
64018;SDS011;66942;52.138;5.216;2023-06-24T01:33:36;8.6;;;8.1;;
64018;SDS011;66942;52.138;5.216;2023-06-24T01:35:19;8.0;;;7.5;;
64018;SDS011;66942;52.138;5.216;2023-06-24T01:37:14;9.0;;;8.5;;
64018;SDS011;66942;52.138;5.216;2023-06-24T01:38:55;8.31;;;7.9;;
64018;SDS011;66942;52.138;5.216;2023-06-24T01:40:41;7.9;;;7.5;;
64018;SDS011;66942;52.138;5.216;2023-06-24T01:43:58;8.9;;;8.5;;
64018;SDS011;66942;52.138;5.216;2023-06-24T01:45:36;8.9;;;8.4;;
64018;SDS011;66942;52.138;5.216;2023-06-24T01:47:16;8.31;;;7.9;;
64018;SDS011;66942;52.138;5.216;2023-06-24T01:48:58;8.1;;;7.7;;
64018;SDS011;66942;52.138;5.216;2023-06-24T01:52:18;8.5;;;8.1;;
64018;SDS011;66942;52.138;5.216;2023-06-24T01:53:59;8.4;;;7.9;;
64018;SDS011;66942;52.138;5.216;2023-06-24T01:55:39;8.81;;;8.31;;
64018;SDS011;66942;52.138;5.216;2023-06-24T01:57:17;8.2;;;7.8;;
64018;SDS011;66942;52.138;5.216;2023-06-24T02:00:35;8.31;;;7.9;;
64018;SDS011;66942;52.138;5.216;2023-06-24T02:02:12;7.9;;;7.5;;
64018;SDS011;66942;52.138;5.216;2023-06-24T02:03:50;8.6;;;8.2;;
64018;SDS011;66942;52.138;5.216;2023-06-24T02:05:29;8.31;;;7.9;;
64018;SDS011;66942;52.138;5.216;2023-06-24T02:08:47;7.7;;;7.3;;
64018;SDS011;66942;52.138;5.216;2023-06-24T02:10:26;8.0;;;7.6;;
64018;SDS011;66942;52.138;5.216;2023-06-24T02:12:05;8.31;;;7.8;;
64018;SDS011;66942;52.138;5.216;2023-06-24T02:15:20;7.9;;;7.5;;
64018;SDS011;66942;52.138;5.216;2023-06-24T02:16:59;7.8;;;7.4;;
64018;SDS011;66942;52.138;5.216;2023-06-24T02:18:37;8.81;;;8.2;;
64018;SDS011;66942;52.138;5.216;2023-06-24T02:20:15;7.8;;;7.4;;
64018;SDS011;66942;52.138;5.216;2023-06-24T02:23:31;8.2;;;7.8;;
64018;SDS011;66942;52.138;5.216;2023-06-24T02:25:10;8.2;;;7.8;;
64018;SDS011;66942;52.138;5.216;2023-06-24T02:26:48;8.1;;;7.7;;
64018;SDS011;66942;52.138;5.216;2023-06-24T02:28:26;8.0;;;7.6;;
64018;SDS011;66942;52.138;5.216;2023-06-24T02:31:43;8.4;;;7.9;;
64018;SDS011;66942;52.138;5.216;2023-06-24T02:33:19;8.6;;;8.2;;
64018;SDS011;66942;52.138;5.216;2023-06-24T02:34:56;8.2;;;7.7;;
64018;SDS011;66942;52.138;5.216;2023-06-24T02:38:09;7.7;;;7.3;;
64018;SDS011;66942;52.138;5.216;2023-06-24T02:39:45;8.2;;;7.8;;
64018;SDS011;66942;52.138;5.216;2023-06-24T02:41:21;8.2;;;7.8;;
64018;SDS011;66942;52.138;5.216;2023-06-24T02:44:35;8.1;;;7.7;;
64018;SDS011;66942;52.138;5.216;2023-06-24T02:46:11;7.8;;;7.4;;
64018;SDS011;66942;52.138;5.216;2023-06-24T02:47:50;8.31;;;7.8;;
64018;SDS011;66942;52.138;5.216;2023-06-24T02:49:28;8.2;;;7.8;;
64018;SDS011;66942;52.138;5.216;2023-06-24T02:52:44;8.6;;;8.1;;
64018;SDS011;66942;52.138;5.216;2023-06-24T02:54:21;8.5;;;8.1;;
64018;SDS011;66942;52.138;5.216;2023-06-24T02:55:57;7.6;;;7.2;;
64018;SDS011;66942;52.138;5.216;2023-06-24T02:59:11;8.1;;;7.7;;
64018;SDS011;66942;52.138;5.216;2023-06-24T03:00:47;7.9;;;7.5;;
64018;SDS011;66942;52.138;5.216;2023-06-24T03:02:24;7.8;;;7.4;;
64018;SDS011;66942;52.138;5.216;2023-06-24T03:04:01;8.2;;;7.7;;
64018;SDS011;66942;52.138;5.216;2023-06-24T03:07:14;7.8;;;7.4;;
64018;SDS011;66942;52.138;5.216;2023-06-24T03:08:50;7.9;;;7.5;;
64018;SDS011;66942;52.138;5.216;2023-06-24T03:10:27;8.31;;;7.9;;
64018;SDS011;66942;52.138;5.216;2023-06-24T03:13:42;8.2;;;7.8;;
64018;SDS011;66942;52.138;5.216;2023-06-24T03:15:19;7.7;;;7.3;;
64018;SDS011;66942;52.138;5.216;2023-06-24T03:16:55;8.1;;;7.7;;
64018;SDS011;66942;52.138;5.216;2023-06-24T03:20:08;8.2;;;7.7;;
64018;SDS011;66942;52.138;5.216;2023-06-24T03:21:44;7.9;;;7.6;;
64018;SDS011;66942;52.138;5.216;2023-06-24T03:23:20;8.1;;;7.7;;
64018;SDS011;66942;52.138;5.216;2023-06-24T03:24:57;7.7;;;7.3;;
64018;SDS011;66942;52.138;5.216;2023-06-24T03:28:11;7.9;;;7.5;;
64018;SDS011;66942;52.138;5.216;2023-06-24T03:29:47;7.4;;;7.0;;
64018;SDS011;66942;52.138;5.216;2023-06-24T03:31:23;7.7;;;7.3;;
64018;SDS011;66942;52.138;5.216;2023-06-24T03:34:36;8.0;;;7.6;;
64018;SDS011;66942;52.138;5.216;2023-06-24T03:36:12;7.8;;;7.4;;
64018;SDS011;66942;52.138;5.216;2023-06-24T03:37:48;8.2;;;7.8;;
64018;SDS011;66942;52.138;5.216;2023-06-24T03:41:01;7.6;;;7.3;;
64018;SDS011;66942;52.138;5.216;2023-06-24T03:42:37;8.4;;;8.0;;
64018;SDS011;66942;52.138;5.216;2023-06-24T03:44:13;8.2;;;7.8;;
64018;SDS011;66942;52.138;5.216;2023-06-24T03:45:50;8.31;;;7.9;;
64018;SDS011;66942;52.138;5.216;2023-06-24T03:49:03;7.8;;;7.4;;
64018;SDS011;66942;52.138;5.216;2023-06-24T03:50:40;7.9;;;7.5;;
64018;SDS011;66942;52.138;5.216;2023-06-24T03:52:16;7.8;;;7.5;;
64018;SDS011;66942;52.138;5.216;2023-06-24T03:55:28;8.0;;;7.6;;
64018;SDS011;66942;52.138;5.216;2023-06-24T03:57:05;8.1;;;7.7;;
64018;SDS011;66942;52.138;5.216;2023-06-24T03:58:41;8.1;;;7.7;;
64018;SDS011;66942;52.138;5.216;2023-06-24T04:01:54;7.8;;;7.4;;
64018;SDS011;66942;52.138;5.216;2023-06-24T04:03:30;8.1;;;7.7;;
64018;SDS011;66942;52.138;5.216;2023-06-24T04:05:06;7.7;;;7.3;;
64018;SDS011;66942;52.138;5.216;2023-06-24T04:08:18;8.1;;;7.7;;
64018;SDS011;66942;52.138;5.216;2023-06-24T04:09:55;8.2;;;7.7;;
64018;SDS011;66942;52.138;5.216;2023-06-24T04:11:32;8.2;;;7.8;;
64018;SDS011;66942;52.138;5.216;2023-06-24T04:13:08;7.6;;;7.2;;
64018;SDS011;66942;52.138;5.216;2023-06-24T04:16:20;7.9;;;7.4;;
64018;SDS011;66942;52.138;5.216;2023-06-24T04:17:56;8.0;;;7.6;;
64018;SDS011;66942;52.138;5.216;2023-06-24T04:19:32;7.6;;;7.2;;
64018;SDS011;66942;52.138;5.216;2023-06-24T04:22:45;8.2;;;7.7;;
64018;SDS011;66942;52.138;5.216;2023-06-24T04:24:21;8.1;;;7.6;;
64018;SDS011;66942;52.138;5.216;2023-06-24T04:25:57;8.1;;;7.7;;
64018;SDS011;66942;52.138;5.216;2023-06-24T04:29:10;8.4;;;8.0;;
64018;SDS011;66942;52.138;5.216;2023-06-24T04:30:46;8.1;;;7.7;;
64018;SDS011;66942;52.138;5.216;2023-06-24T04:32:22;8.6;;;8.1;;
64018;SDS011;66942;52.138;5.216;2023-06-24T04:33:59;8.2;;;7.8;;
64018;SDS011;66942;52.138;5.216;2023-06-24T04:37:11;8.71;;;8.31;;
64018;SDS011;66942;52.138;5.216;2023-06-24T04:38:47;8.6;;;8.2;;
64018;SDS011;66942;52.138;5.216;2023-06-24T04:40:23;7.9;;;7.5;;
64018;SDS011;66942;52.138;5.216;2023-06-24T04:43:36;7.9;;;7.5;;
64018;SDS011;66942;52.138;5.216;2023-06-24T04:45:12;8.31;;;7.9;;
64018;SDS011;66942;52.138;5.216;2023-06-24T04:46:48;8.6;;;8.1;;
64018;SDS011;66942;52.138;5.216;2023-06-24T04:50:00;8.71;;;8.31;;
64018;SDS011;66942;52.138;5.216;2023-06-24T04:51:36;8.2;;;7.8;;
64018;SDS011;66942;52.138;5.216;2023-06-24T04:53:12;8.31;;;7.9;;
64018;SDS011;66942;52.138;5.216;2023-06-24T04:56:25;8.0;;;7.6;;
64018;SDS011;66942;52.138;5.216;2023-06-24T04:58:01;8.0;;;7.6;;
64018;SDS011;66942;52.138;5.216;2023-06-24T04:59:37;8.1;;;7.7;;
64018;SDS011;66942;52.138;5.216;2023-06-24T05:01:13;8.1;;;7.7;;
64018;SDS011;66942;52.138;5.216;2023-06-24T05:04:25;8.1;;;7.7;;
64018;SDS011;66942;52.138;5.216;2023-06-24T05:06:02;8.81;;;8.4;;
64018;SDS011;66942;52.138;5.216;2023-06-24T05:07:38;8.31;;;7.8;;
64018;SDS011;66942;52.138;5.216;2023-06-24T05:10:50;8.4;;;8.0;;
64018;SDS011;66942;52.138;5.216;2023-06-24T05:12:26;8.81;;;8.31;;
64018;SDS011;66942;52.138;5.216;2023-06-24T05:14:02;8.0;;;7.6;;
64018;SDS011;66942;52.138;5.216;2023-06-24T05:17:14;8.1;;;7.7;;
64018;SDS011;66942;52.138;5.216;2023-06-24T05:18:51;7.7;;;7.3;;
64018;SDS011;66942;52.138;5.216;2023-06-24T05:20:27;7.6;;;7.2;;
64018;SDS011;66942;52.138;5.216;2023-06-24T05:22:04;7.7;;;7.3;;
64018;SDS011;66942;52.138;5.216;2023-06-24T05:25:16;8.0;;;7.6;;
64018;SDS011;66942;52.138;5.216;2023-06-24T05:26:52;8.1;;;7.6;;
64018;SDS011;66942;52.138;5.216;2023-06-24T05:28:28;8.4;;;7.8;;
64018;SDS011;66942;52.138;5.216;2023-06-24T05:31:43;8.0;;;7.5;;
64018;SDS011;66942;52.138;5.216;2023-06-24T05:33:20;8.9;;;8.5;;
64018;SDS011;66942;52.138;5.216;2023-06-24T05:34:56;14.0;;;13.2;;
64018;SDS011;66942;52.138;5.216;2023-06-24T05:38:08;9.31;;;8.81;;
64018;SDS011;66942;52.138;5.216;2023-06-24T05:39:44;8.4;;;7.8;;
64018;SDS011;66942;52.138;5.216;2023-06-24T05:41:20;8.0;;;7.5;;
64018;SDS011;66942;52.138;5.216;2023-06-24T05:44:33;8.0;;;7.4;;
64018;SDS011;66942;52.138;5.216;2023-06-24T05:46:09;7.6;;;7.0;;
64018;SDS011;66942;52.138;5.216;2023-06-24T05:47:45;8.4;;;7.8;;
64018;SDS011;66942;52.138;5.216;2023-06-24T05:49:21;7.2;;;6.7;;
64018;SDS011;66942;52.138;5.216;2023-06-24T05:52:33;7.6;;;7.0;;
64018;SDS011;66942;52.138;5.216;2023-06-24T05:54:09;7.2;;;6.8;;
64018;SDS011;66942;52.138;5.216;2023-06-24T05:55:46;6.5;;;6.2;;
64018;SDS011;66942;52.138;5.216;2023-06-24T05:58:58;6.0;;;5.6;;
64018;SDS011;66942;52.138;5.216;2023-06-24T06:00:34;6.0;;;5.6;;
64018;SDS011;66942;52.138;5.216;2023-06-24T06:02:10;6.0;;;5.5;;
64018;SDS011;66942;52.138;5.216;2023-06-24T06:05:22;5.9;;;5.5;;
64018;SDS011;66942;52.138;5.216;2023-06-24T06:06:59;5.2;;;4.91;;
64018;SDS011;66942;52.138;5.216;2023-06-24T06:08:34;5.3;;;5.0;;
64018;SDS011;66942;52.138;5.216;2023-06-24T06:10:10;5.0;;;4.7;;
64018;SDS011;66942;52.138;5.216;2023-06-24T06:13:22;5.5;;;5.2;;
64018;SDS011;66942;52.138;5.216;2023-06-24T06:14:59;4.91;;;4.61;;
64018;SDS011;66942;52.138;5.216;2023-06-24T06:16:35;5.11;;;4.8;;
64018;SDS011;66942;52.138;5.216;2023-06-24T06:19:48;5.11;;;4.8;;
64018;SDS011;66942;52.138;5.216;2023-06-24T06:21:24;4.61;;;4.3;;
64018;SDS011;66942;52.138;5.216;2023-06-24T06:23:00;4.41;;;4.2;;
64018;SDS011;66942;52.138;5.216;2023-06-24T06:26:12;4.91;;;4.61;;
64018;SDS011;66942;52.138;5.216;2023-06-24T06:27:48;4.2;;;4.0;;
64018;SDS011;66942;52.138;5.216;2023-06-24T06:29:24;4.61;;;4.3;;
64018;SDS011;66942;52.138;5.216;2023-06-24T06:32:37;4.91;;;4.61;;
64018;SDS011;66942;52.138;5.216;2023-06-24T06:34:13;4.3;;;4.0;;
64018;SDS011;66942;52.138;5.216;2023-06-24T06:35:49;4.7;;;4.3;;
64018;SDS011;66942;52.138;5.216;2023-06-24T06:37:25;4.0;;;3.8;;
64018;SDS011;66942;52.138;5.216;2023-06-24T06:40:37;4.7;;;4.41;;
64018;SDS011;66942;52.138;5.216;2023-06-24T06:42:13;4.61;;;4.3;;
64018;SDS011;66942;52.138;5.216;2023-06-24T06:43:52;4.61;;;4.3;;
64018;SDS011;66942;52.138;5.216;2023-06-24T06:47:05;4.61;;;4.3;;
64018;SDS011;66942;52.138;5.216;2023-06-24T06:48:42;4.5;;;4.2;;
64018;SDS011;66942;52.138;5.216;2023-06-24T06:50:18;4.2;;;4.0;;
64018;SDS011;66942;52.138;5.216;2023-06-24T06:53:30;4.41;;;4.1;;
64018;SDS011;66942;52.138;5.216;2023-06-24T06:55:07;4.7;;;4.41;;
64018;SDS011;66942;52.138;5.216;2023-06-24T06:56:45;4.41;;;4.1;;
64018;SDS011;66942;52.138;5.216;2023-06-24T06:58:21;4.41;;;4.1;;
64018;SDS011;66942;52.138;5.216;2023-06-24T07:01:33;4.7;;;4.3;;
64018;SDS011;66942;52.138;5.216;2023-06-24T07:03:09;4.5;;;4.2;;
64018;SDS011;66942;52.138;5.216;2023-06-24T07:04:45;4.0;;;3.8;;
64018;SDS011;66942;52.138;5.216;2023-06-24T07:07:58;4.3;;;4.0;;
64018;SDS011;66942;52.138;5.216;2023-06-24T07:09:34;4.5;;;4.2;;
64018;SDS011;66942;52.138;5.216;2023-06-24T07:11:10;4.3;;;3.9;;
64018;SDS011;66942;52.138;5.216;2023-06-24T07:14:22;4.61;;;4.3;;
64018;SDS011;66942;52.138;5.216;2023-06-24T07:15:58;4.5;;;4.2;;
64018;SDS011;66942;52.138;5.216;2023-06-24T07:17:34;4.61;;;4.2;;
64018;SDS011;66942;52.138;5.216;2023-06-24T07:20:47;4.2;;;3.9;;
64018;SDS011;66942;52.138;5.216;2023-06-24T07:22:23;4.8;;;4.41;;
64018;SDS011;66942;52.138;5.216;2023-06-24T07:23:59;4.8;;;4.5;;
64018;SDS011;66942;52.138;5.216;2023-06-24T07:25:35;4.3;;;4.0;;
64018;SDS011;66942;52.138;5.216;2023-06-24T07:28:47;5.11;;;4.7;;
64018;SDS011;66942;52.138;5.216;2023-06-24T07:30:23;5.3;;;4.91;;
64018;SDS011;66942;52.138;5.216;2023-06-24T07:32:00;4.61;;;4.2;;
64018;SDS011;66942;52.138;5.216;2023-06-24T07:35:12;3.7;;;3.5;;
64018;SDS011;66942;52.138;5.216;2023-06-24T07:36:48;4.91;;;4.5;;
64018;SDS011;66942;52.138;5.216;2023-06-24T07:38:24;4.41;;;4.1;;
64018;SDS011;66942;52.138;5.216;2023-06-24T07:41:36;3.6;;;3.4;;
64018;SDS011;66942;52.138;5.216;2023-06-24T07:43:13;3.7;;;3.4;;
64018;SDS011;66942;52.138;5.216;2023-06-24T07:44:49;4.1;;;3.9;;
64018;SDS011;66942;52.138;5.216;2023-06-24T07:46:25;3.9;;;3.7;;
64018;SDS011;66942;52.138;5.216;2023-06-24T07:49:37;4.1;;;3.8;;
64018;SDS011;66942;52.138;5.216;2023-06-24T07:51:13;3.8;;;3.6;;
64018;SDS011;66942;52.138;5.216;2023-06-24T07:52:49;4.1;;;3.8;;
64018;SDS011;66942;52.138;5.216;2023-06-24T07:56:02;3.1;;;2.9;;
64018;SDS011;66942;52.138;5.216;2023-06-24T07:57:39;4.0;;;3.7;;
64018;SDS011;66942;52.138;5.216;2023-06-24T07:59:15;3.7;;;3.4;;
64018;SDS011;66942;52.138;5.216;2023-06-24T08:02:27;4.1;;;3.7;;
64018;SDS011;66942;52.138;5.216;2023-06-24T08:04:03;4.1;;;3.8;;
64018;SDS011;66942;52.138;5.216;2023-06-24T08:05:39;4.3;;;3.9;;
64018;SDS011;66942;52.138;5.216;2023-06-24T08:08:52;4.0;;;3.6;;
64018;SDS011;66942;52.138;5.216;2023-06-24T08:10:28;4.0;;;3.7;;
64018;SDS011;66942;52.138;5.216;2023-06-24T08:12:04;3.5;;;3.2;;
64018;SDS011;66942;52.138;5.216;2023-06-24T08:13:41;4.0;;;3.7;;
64018;SDS011;66942;52.138;5.216;2023-06-24T08:16:53;4.1;;;3.8;;
64018;SDS011;66942;52.138;5.216;2023-06-24T08:18:30;3.5;;;3.3;;
64018;SDS011;66942;52.138;5.216;2023-06-24T08:20:06;3.8;;;3.6;;
64018;SDS011;66942;52.138;5.216;2023-06-24T08:23:19;3.9;;;3.6;;
64018;SDS011;66942;52.138;5.216;2023-06-24T08:24:55;3.7;;;3.4;;
64018;SDS011;66942;52.138;5.216;2023-06-24T08:26:31;4.5;;;4.2;;
64018;SDS011;66942;52.138;5.216;2023-06-24T08:29:44;4.61;;;4.2;;
64018;SDS011;66942;52.138;5.216;2023-06-24T08:31:20;4.61;;;4.2;;
64018;SDS011;66942;52.138;5.216;2023-06-24T08:32:56;4.61;;;4.3;;
64018;SDS011;66942;52.138;5.216;2023-06-24T08:34:32;4.0;;;3.7;;
64018;SDS011;66942;52.138;5.216;2023-06-24T08:37:44;4.3;;;3.9;;
64018;SDS011;66942;52.138;5.216;2023-06-24T08:39:20;4.41;;;4.1;;
64018;SDS011;66942;52.138;5.216;2023-06-24T08:40:57;3.9;;;3.5;;
64018;SDS011;66942;52.138;5.216;2023-06-24T08:44:10;4.41;;;4.0;;
64018;SDS011;66942;52.138;5.216;2023-06-24T08:45:46;4.91;;;4.1;;
64018;SDS011;66942;52.138;5.216;2023-06-24T08:47:23;4.2;;;3.8;;
64018;SDS011;66942;52.138;5.216;2023-06-24T08:50:51;5.11;;;4.8;;
64018;SDS011;66942;52.138;5.216;2023-06-24T08:52:34;4.41;;;3.8;;
64018;SDS011;66942;52.138;5.216;2023-06-24T08:54:13;5.2;;;4.8;;
64018;SDS011;66942;52.138;5.216;2023-06-24T08:55:50;4.41;;;4.1;;
64018;SDS011;66942;52.138;5.216;2023-06-24T08:59:05;4.3;;;3.9;;
64018;SDS011;66942;52.138;5.216;2023-06-24T09:00:42;54.8;;;6.2;;
64018;SDS011;66942;52.138;5.216;2023-06-24T09:02:19;4.41;;;4.1;;
64018;SDS011;66942;52.138;5.216;2023-06-24T09:03:55;5.0;;;4.3;;
64018;SDS011;66942;52.138;5.216;2023-06-24T09:07:07;3.8;;;3.6;;
64018;SDS011;66942;52.138;5.216;2023-06-24T09:08:51;4.8;;;4.41;;
64018;SDS011;66942;52.138;5.216;2023-06-24T09:10:29;4.41;;;4.0;;
64018;SDS011;66942;52.138;5.216;2023-06-24T09:13:46;4.5;;;4.2;;
64018;SDS011;66942;52.138;5.216;2023-06-24T09:15:23;4.61;;;4.3;;
64018;SDS011;66942;52.138;5.216;2023-06-24T09:16:59;4.1;;;3.8;;
64018;SDS011;66942;52.138;5.216;2023-06-24T09:18:36;4.41;;;4.1;;
64018;SDS011;66942;52.138;5.216;2023-06-24T09:21:48;5.11;;;4.61;;
64018;SDS011;66942;52.138;5.216;2023-06-24T09:23:25;4.61;;;4.3;;
64018;SDS011;66942;52.138;5.216;2023-06-24T09:25:01;4.41;;;4.1;;
64018;SDS011;66942;52.138;5.216;2023-06-24T09:28:14;4.0;;;3.8;;
64018;SDS011;66942;52.138;5.216;2023-06-24T09:29:50;4.41;;;4.1;;
64018;SDS011;66942;52.138;5.216;2023-06-24T09:31:27;4.3;;;4.0;;
64018;SDS011;66942;52.138;5.216;2023-06-24T09:34:39;5.3;;;4.91;;
64018;SDS011;66942;52.138;5.216;2023-06-24T09:36:15;5.11;;;4.7;;
64018;SDS011;66942;52.138;5.216;2023-06-24T09:37:52;5.0;;;4.5;;
64018;SDS011;66942;52.138;5.216;2023-06-24T09:39:34;5.6;;;5.2;;
64018;SDS011;66942;52.138;5.216;2023-06-24T09:42:51;5.3;;;5.0;;
64018;SDS011;66942;52.138;5.216;2023-06-24T09:44:28;5.2;;;4.8;;
64018;SDS011;66942;52.138;5.216;2023-06-24T09:46:06;4.91;;;4.0;;
64018;SDS011;66942;52.138;5.216;2023-06-24T09:49:19;5.3;;;5.0;;
64018;SDS011;66942;52.138;5.216;2023-06-24T09:50:55;5.11;;;4.8;;
64018;SDS011;66942;52.138;5.216;2023-06-24T09:52:35;6.0;;;5.5;;
64018;SDS011;66942;52.138;5.216;2023-06-24T09:54:12;5.5;;;5.11;;
64018;SDS011;66942;52.138;5.216;2023-06-24T09:57:27;6.0;;;5.6;;
64018;SDS011;66942;52.138;5.216;2023-06-24T09:59:08;5.2;;;4.8;;
64018;SDS011;66942;52.138;5.216;2023-06-24T10:00:45;5.11;;;4.7;;
64018;SDS011;66942;52.138;5.216;2023-06-24T10:03:59;5.3;;;4.91;;
64018;SDS011;66942;52.138;5.216;2023-06-24T10:05:37;5.7;;;5.3;;
64018;SDS011;66942;52.138;5.216;2023-06-24T10:07:14;5.2;;;4.8;;
64018;SDS011;66942;52.138;5.216;2023-06-24T10:08:50;4.8;;;4.5;;
64018;SDS011;66942;52.138;5.216;2023-06-24T10:12:04;4.3;;;4.1;;
64018;SDS011;66942;52.138;5.216;2023-06-24T10:13:41;4.8;;;4.5;;
64018;SDS011;66942;52.138;5.216;2023-06-24T10:15:17;5.2;;;4.91;;
64018;SDS011;66942;52.138;5.216;2023-06-24T10:18:38;5.2;;;4.8;;
64018;SDS011;66942;52.138;5.216;2023-06-24T10:20:17;5.6;;;5.2;;
64018;SDS011;66942;52.138;5.216;2023-06-24T10:22:00;4.8;;;4.5;;
64018;SDS011;66942;52.138;5.216;2023-06-24T10:23:39;5.0;;;4.7;;
64018;SDS011;66942;52.138;5.216;2023-06-24T10:26:53;5.6;;;5.2;;
64018;SDS011;66942;52.138;5.216;2023-06-24T10:28:52;5.3;;;4.91;;
64018;SDS011;66942;52.138;5.216;2023-06-24T10:30:53;6.2;;;5.8;;
64018;SDS011;66942;52.138;5.216;2023-06-24T10:32:39;5.11;;;4.8;;
64018;SDS011;66942;52.138;5.216;2023-06-24T10:34:20;5.7;;;5.3;;
64018;SDS011;66942;52.138;5.216;2023-06-24T10:36:00;6.8;;;6.4;;
64018;SDS011;66942;52.138;5.216;2023-06-24T10:39:27;5.6;;;5.11;;
64018;SDS011;66942;52.138;5.216;2023-06-24T10:41:14;5.4;;;5.0;;
64018;SDS011;66942;52.138;5.216;2023-06-24T10:42:51;5.4;;;4.91;;
64018;SDS011;66942;52.138;5.216;2023-06-24T10:44:27;5.3;;;4.91;;
64018;SDS011;66942;52.138;5.216;2023-06-24T10:47:51;7.2;;;6.6;;
64018;SDS011;66942;52.138;5.216;2023-06-24T10:49:28;6.8;;;6.3;;
64018;SDS011;66942;52.138;5.216;2023-06-24T10:51:04;5.11;;;4.61;;
64018;SDS011;66942;52.138;5.216;2023-06-24T10:52:41;5.3;;;4.91;;
64018;SDS011;66942;52.138;5.216;2023-06-24T10:55:56;6.7;;;6.2;;
64018;SDS011;66942;52.138;5.216;2023-06-24T10:57:33;5.7;;;5.3;;
64018;SDS011;66942;52.138;5.216;2023-06-24T10:59:09;6.3;;;5.9;;
64018;SDS011;66942;52.138;5.216;2023-06-24T11:02:22;4.8;;;4.5;;
64018;SDS011;66942;52.138;5.216;2023-06-24T11:04:05;6.3;;;5.9;;
64018;SDS011;66942;52.138;5.216;2023-06-24T11:05:41;6.8;;;6.4;;
64018;SDS011;66942;52.138;5.216;2023-06-24T11:07:20;5.6;;;5.3;;
64018;SDS011;66942;52.138;5.216;2023-06-24T11:10:45;5.6;;;5.3;;
64018;SDS011;66942;52.138;5.216;2023-06-24T11:12:23;4.8;;;4.41;;
64018;SDS011;66942;52.138;5.216;2023-06-24T11:14:01;5.9;;;5.5;;
64018;SDS011;66942;52.138;5.216;2023-06-24T11:15:38;8.9;;;8.2;;
64018;SDS011;66942;52.138;5.216;2023-06-24T11:18:51;6.4;;;6.0;;
64018;SDS011;66942;52.138;5.216;2023-06-24T11:20:27;6.5;;;6.1;;
64018;SDS011;66942;52.138;5.216;2023-06-24T11:22:03;6.6;;;6.1;;
64018;SDS011;66942;52.138;5.216;2023-06-24T11:25:18;5.7;;;5.3;;
64018;SDS011;66942;52.138;5.216;2023-06-24T11:26:55;6.1;;;5.5;;
64018;SDS011;66942;52.138;5.216;2023-06-24T11:28:32;5.8;;;5.4;;
64018;SDS011;66942;52.138;5.216;2023-06-24T11:31:46;6.4;;;6.0;;
64018;SDS011;66942;52.138;5.216;2023-06-24T11:33:26;6.0;;;5.5;;
64018;SDS011;66942;52.138;5.216;2023-06-24T11:35:03;6.2;;;5.7;;
64018;SDS011;66942;52.138;5.216;2023-06-24T11:36:40;7.8;;;7.3;;
64018;SDS011;66942;52.138;5.216;2023-06-24T11:40:00;8.1;;;7.6;;
64018;SDS011;66942;52.138;5.216;2023-06-24T11:41:38;6.9;;;6.4;;
64018;SDS011;66942;52.138;5.216;2023-06-24T11:43:14;5.4;;;5.0;;
64018;SDS011;66942;52.138;5.216;2023-06-24T11:46:27;5.8;;;5.3;;
64018;SDS011;66942;52.138;5.216;2023-06-24T11:48:05;4.8;;;4.41;;
64018;SDS011;66942;52.138;5.216;2023-06-24T11:49:48;4.8;;;4.5;;
64018;SDS011;66942;52.138;5.216;2023-06-24T11:51:26;4.0;;;3.6;;
64018;SDS011;66942;52.138;5.216;2023-06-24T11:54:40;4.7;;;4.41;;
64018;SDS011;66942;52.138;5.216;2023-06-24T11:56:17;4.8;;;4.41;;
64018;SDS011;66942;52.138;5.216;2023-06-24T11:57:54;3.8;;;3.6;;
64018;SDS011;66942;52.138;5.216;2023-06-24T11:59:34;3.8;;;3.6;;
64018;SDS011;66942;52.138;5.216;2023-06-24T12:02:48;3.8;;;3.5;;
64018;SDS011;66942;52.138;5.216;2023-06-24T12:04:27;4.61;;;4.2;;
64018;SDS011;66942;52.138;5.216;2023-06-24T12:06:04;4.7;;;4.3;;
64018;SDS011;66942;52.138;5.216;2023-06-24T12:09:16;4.2;;;3.9;;
64018;SDS011;66942;52.138;5.216;2023-06-24T12:10:53;4.5;;;4.2;;
64018;SDS011;66942;52.138;5.216;2023-06-24T12:12:29;4.3;;;4.1;;
64018;SDS011;66942;52.138;5.216;2023-06-24T12:15:41;4.41;;;4.1;;
64018;SDS011;66942;52.138;5.216;2023-06-24T12:17:17;4.3;;;4.0;;
64018;SDS011;66942;52.138;5.216;2023-06-24T12:18:53;4.0;;;3.7;;
64018;SDS011;66942;52.138;5.216;2023-06-24T12:20:29;4.7;;;4.3;;
64018;SDS011;66942;52.138;5.216;2023-06-24T12:23:43;3.7;;;3.5;;
64018;SDS011;66942;52.138;5.216;2023-06-24T12:25:20;5.2;;;4.7;;
64018;SDS011;66942;52.138;5.216;2023-06-24T12:26:56;3.7;;;3.5;;
64018;SDS011;66942;52.138;5.216;2023-06-24T12:30:09;4.1;;;3.7;;
64018;SDS011;66942;52.138;5.216;2023-06-24T12:31:46;4.0;;;3.7;;
64018;SDS011;66942;52.138;5.216;2023-06-24T12:33:22;3.7;;;3.5;;
64018;SDS011;66942;52.138;5.216;2023-06-24T12:36:34;4.41;;;4.2;;
64018;SDS011;66942;52.138;5.216;2023-06-24T12:38:10;4.41;;;4.2;;
64018;SDS011;66942;52.138;5.216;2023-06-24T12:39:46;4.41;;;4.2;;
64018;SDS011;66942;52.138;5.216;2023-06-24T12:41:22;4.7;;;4.3;;
64018;SDS011;66942;52.138;5.216;2023-06-24T12:44:35;4.41;;;4.1;;
64018;SDS011;66942;52.138;5.216;2023-06-24T12:46:11;4.1;;;3.9;;
64018;SDS011;66942;52.138;5.216;2023-06-24T12:47:47;4.41;;;4.1;;
64018;SDS011;66942;52.138;5.216;2023-06-24T12:50:59;3.9;;;3.7;;
64018;SDS011;66942;52.138;5.216;2023-06-24T12:52:36;4.61;;;4.2;;
64018;SDS011;66942;52.138;5.216;2023-06-24T12:54:13;4.3;;;4.0;;
64018;SDS011;66942;52.138;5.216;2023-06-24T12:57:25;3.9;;;3.7;;